Decoded Metar for KRSL (RUSSELL in KS, USA) (IATA:RSL) | Meteo·Mobile Aviation Weather
aviador You're here:

KRSL Decoded Metar

RUSSELL in KS, USA
Report Time2019-03-21 21:53:00
UTC Time2019-03-22 10:41:23
Flight Rules Old
Wind250° at 04 kt
W.Decomp.*RWY 21: 3.4 kt HW 2.1 kt RCW
RWY 17: 1.2 kt HW 3.8 kt RCW
W.Rank250° ranks 29
Current wind is below 250° avg. (8.4)
Visibility9999 m
Phenomena:N/A
Clouds:N/A
Expected CloudBase > 6,800 ft AGL from Temp-Dew spread
CeilingNone
Temp16°C (ISA +5)
Dew Point-1°C (31% RH)
AAT12.4°C
QNH1021 hPa
Density Alt2,228 ft
Elevation1,860 ft
Report Wrong Elevation
Raw Report
KRSL 212153Z AUTO 25004KT 10SM CLR 16/M01 A3015 RMK AO2 SLP215
T01611011=

Extra information for KRSL:More info

Metar Taf Metar & Taf Last 4 Metars F.Rules Stats Wind Profile Meteogram Temp Stats Airport Information Weather charts Add Link Nearby VenuesMetar ALERT Operation Metar Decoded Social comments

AIRNAV info for KRSL